Time;durP1;ratioP1;P1;durP2;ratioP2;P2;SDS_P1;SDS_P2;PMS_P1;PMS_P2;Temp;Humidity;BMP_temperature;BMP_pressure;BME280_temperature;BME280_humidity;BME280_pressure;Samples;Min_cycle;Max_cycle;Signal;HPM_P1;HPM_P2
2023/05/18 00:00:13;;;;;;;;;;;6.50;99.90;;;;;;5067657;28;19935;-64
2023/05/18 00:02:47;;;;;;;;;;;6.50;99.90;;;;;;5060450;28;19933;-64
2023/05/18 00:05:19;;;;;;;;;;;6.50;99.90;;;;;;5060355;28;19933;-65
2023/05/18 00:07:46;;;;;;;;;;;6.50;99.90;;;;;;5061918;28;20372;-64
2023/05/18 00:10:18;;;;;;;;;;;6.50;99.90;;;;;;5063928;28;19931;-65
2023/05/18 00:12:50;;;;;;;;;;;6.40;99.90;;;;;;5061997;28;19924;-64
2023/05/18 00:15:21;;;;;;;;;;;6.40;99.90;;;;;;5064656;28;19924;-64
2023/05/18 00:17:53;;;;;;;;;;;6.40;99.90;;;;;;5060410;28;19977;-64
2023/05/18 00:20:25;;;;;;;;;;;6.40;99.90;;;;;;5048434;28;20344;-64
2023/05/18 00:22:57;;;;;;;;;;;6.30;99.90;;;;;;5061447;28;19928;-64
2023/05/18 00:25:28;;;;;;;;;;;6.30;99.90;;;;;;5059406;28;19925;-64
2023/05/18 00:28:00;;;;;;;;;;;6.30;99.90;;;;;;5067995;28;19924;-64
2023/05/18 00:30:32;;;;;;;;;;;6.20;99.90;;;;;;5060543;28;19929;-64
2023/05/18 00:33:04;;;;;;;;;;;6.20;99.90;;;;;;5076356;28;19929;-64
2023/05/18 00:35:36;;;;;;;;;;;6.20;99.90;;;;;;5063002;28;20019;-64
2023/05/18 00:38:10;;;;;;;;;;;6.20;99.90;;;;;;5063489;28;19940;-65
2023/05/18 00:40:41;;;;;;;;;;;6.20;99.90;;;;;;5063301;28;19933;-64
2023/05/18 00:43:13;;;;;;;;;;;6.20;99.90;;;;;;5063260;28;19931;-64
2023/05/18 00:45:40;;;;;;;;;;;6.20;99.90;;;;;;5065116;28;19974;-65
2023/05/18 00:48:12;;;;;;;;;;;6.10;99.90;;;;;;5057948;28;19924;-64
2023/05/18 00:50:43;;;;;;;;;;;6.10;99.90;;;;;;5059439;28;19931;-64
2023/05/18 00:53:11;;;;;;;;;;;6.00;99.90;;;;;;5059548;28;19925;-64
2023/05/18 00:55:43;;;;;;;;;;;6.00;99.90;;;;;;5059315;28;20362;-64
2023/05/18 00:58:15;;;;;;;;;;;5.90;99.90;;;;;;5043484;28;19928;-64
2023/05/18 01:00:46;;;;;;;;;;;5.90;99.90;;;;;;5068123;28;19929;-64
2023/05/18 01:03:20;;;;;;;;;;;5.90;99.90;;;;;;5062651;28;20410;-64
2023/05/18 01:05:54;;;;;;;;;;;5.80;99.90;;;;;;5063945;28;19924;-64
2023/05/18 01:08:27;;;;;;;;;;;5.80;99.90;;;;;;5067042;28;19935;-64
2023/05/18 01:11:08;;;;;;;;;;;5.80;99.90;;;;;;5067256;28;19928;-64
2023/05/18 01:13:48;;;;;;;;;;;5.80;99.90;;;;;;5067423;28;19925;-64
2023/05/18 01:16:25;;;;;;;;;;;5.70;99.90;;;;;;5057514;28;19964;-64
2023/05/18 01:19:01;;;;;;;;;;;5.70;99.90;;;;;;5061508;28;20296;-64
2023/05/18 01:21:53;;;;;;;;;;;5.70;99.90;;;;;;5057356;28;19940;-64
2023/05/18 01:24:37;;;;;;;;;;;5.60;99.90;;;;;;5061551;28;19925;-64
2023/05/18 01:27:10;;;;;;;;;;;5.60;99.90;;;;;;5060806;28;20396;-64
2023/05/18 01:29:37;;;;;;;;;;;5.60;99.90;;;;;;5062949;28;20011;-64
2023/05/18 01:32:09;;;;;;;;;;;5.60;99.90;;;;;;5059096;28;19929;-65
2023/05/18 01:34:36;;;;;;;;;;;5.60;99.90;;;;;;5059713;28;20400;-64
2023/05/18 01:37:03;;;;;;;;;;;5.50;99.90;;;;;;5054917;28;20008;-64
2023/05/18 01:39:29;;;;;;;;;;;5.50;99.90;;;;;;5066866;28;20465;-64
2023/05/18 01:42:04;;;;;;;;;;;5.50;99.90;;;;;;5062483;28;19925;-64
2023/05/18 01:44:40;;;;;;;;;;;5.50;99.90;;;;;;5060614;28;20467;-64
2023/05/18 01:47:13;;;;;;;;;;;5.50;99.90;;;;;;5055499;28;20104;-64
2023/05/18 01:49:48;;;;;;;;;;;5.50;99.90;;;;;;5065250;28;19948;-64
2023/05/18 01:52:28;;;;;;;;;;;5.40;99.90;;;;;;5062232;28;19924;-64
2023/05/18 01:55:02;;;;;;;;;;;5.40;99.90;;;;;;5065355;28;19925;-64
2023/05/18 01:57:35;;;;;;;;;;;5.40;99.90;;;;;;5059144;28;19974;-64
2023/05/18 02:00:09;;;;;;;;;;;5.40;99.90;;;;;;5055518;28;20032;-64
2023/05/18 02:02:45;;;;;;;;;;;5.40;99.90;;;;;;5054313;28;19932;-64
2023/05/18 02:05:15;;;;;;;;;;;5.30;99.90;;;;;;5051654;28;20462;-64
2023/05/18 02:07:47;;;;;;;;;;;5.30;99.90;;;;;;5037137;28;19939;-64
2023/05/18 02:10:19;;;;;;;;;;;5.30;99.90;;;;;;5059223;28;20285;-64
2023/05/18 02:12:52;;;;;;;;;;;5.20;99.90;;;;;;5068094;28;19925;-64
2023/05/18 02:15:25;;;;;;;;;;;5.20;99.90;;;;;;5062831;28;20040;-64
2023/05/18 02:17:57;;;;;;;;;;;5.20;99.90;;;;;;5072491;28;19935;-64
2023/05/18 02:20:32;;;;;;;;;;;5.20;99.90;;;;;;5050200;28;19929;-64
2023/05/18 02:22:59;;;;;;;;;;;5.20;99.90;;;;;;5074185;28;19964;-64
2023/05/18 02:25:30;;;;;;;;;;;5.10;99.90;;;;;;5050168;28;19929;-65
2023/05/18 02:28:02;;;;;;;;;;;5.10;99.90;;;;;;5045862;28;20015;-64
2023/05/18 02:30:34;;;;;;;;;;;5.00;99.90;;;;;;5052002;28;19990;-65
2023/05/18 02:33:07;;;;;;;;;;;5.00;99.90;;;;;;5056791;28;19928;-64
2023/05/18 02:35:35;;;;;;;;;;;5.10;99.90;;;;;;5069032;28;19931;-64
2023/05/18 02:38:03;;;;;;;;;;;5.00;99.90;;;;;;5066407;28;19924;-64
2023/05/18 02:40:34;;;;;;;;;;;5.00;99.90;;;;;;5064716;28;20095;-64
2023/05/18 02:43:06;;;;;;;;;;;5.00;99.90;;;;;;5046485;28;19935;-64
2023/05/18 02:45:38;;;;;;;;;;;5.00;99.90;;;;;;5060326;28;19929;-64
2023/05/18 02:48:10;;;;;;;;;;;5.00;99.90;;;;;;5062854;28;19928;-64
2023/05/18 02:50:42;;;;;;;;;;;5.00;99.90;;;;;;5059028;28;20292;-64
2023/05/18 02:53:14;;;;;;;;;;;5.00;99.90;;;;;;5053650;28;19943;-64
2023/05/18 02:55:42;;;;;;;;;;;4.90;99.90;;;;;;5066324;28;19925;-64
2023/05/18 02:58:21;;;;;;;;;;;4.90;99.90;;;;;;5069320;28;19925;-64
2023/05/18 03:00:59;;;;;;;;;;;4.90;99.90;;;;;;5063073;28;19931;-64
2023/05/18 03:03:36;;;;;;;;;;;4.80;99.90;;;;;;5065402;28;19925;-64
2023/05/18 03:06:08;;;;;;;;;;;4.80;99.90;;;;;;5068719;28;20024;-64
2023/05/18 03:08:41;;;;;;;;;;;4.80;99.90;;;;;;5082631;28;20002;-65
2023/05/18 03:11:13;;;;;;;;;;;4.80;99.90;;;;;;5064641;28;19929;-64
2023/05/18 03:13:46;;;;;;;;;;;4.80;99.90;;;;;;5050471;28;20502;-64
2023/05/18 03:16:17;;;;;;;;;;;4.80;99.90;;;;;;5069071;28;19928;-64
2023/05/18 03:18:49;;;;;;;;;;;4.80;99.90;;;;;;5062269;28;19925;-64
2023/05/18 03:21:21;;;;;;;;;;;4.80;99.90;;;;;;5048967;28;19924;-64
2023/05/18 03:23:53;;;;;;;;;;;4.80;99.90;;;;;;5063272;28;20324;-64
2023/05/18 03:26:25;;;;;;;;;;;4.80;99.90;;;;;;5060752;28;19959;-64
2023/05/18 03:28:52;;;;;;;;;;;4.80;99.90;;;;;;5064836;28;19924;-64
2023/05/18 03:31:24;;;;;;;;;;;4.80;99.90;;;;;;5052179;28;20384;-64
2023/05/18 03:33:58;;;;;;;;;;;4.80;99.90;;;;;;5070168;28;19924;-65
2023/05/18 03:36:30;;;;;;;;;;;4.80;99.90;;;;;;5050754;28;20351;-65
2023/05/18 03:39:03;;;;;;;;;;;4.80;99.90;;;;;;5074762;28;19985;-64
2023/05/18 03:41:34;;;;;;;;;;;4.80;99.90;;;;;;5062600;28;19935;-65
2023/05/18 03:44:01;;;;;;;;;;;4.80;99.90;;;;;;5069771;28;19924;-64
2023/05/18 03:46:33;;;;;;;;;;;4.80;99.90;;;;;;5057417;28;20019;-64
2023/05/18 03:49:06;;;;;;;;;;;4.90;99.90;;;;;;5069464;28;19935;-64
2023/05/18 03:51:40;;;;;;;;;;;4.90;99.90;;;;;;5063307;28;19983;-64
2023/05/18 03:54:14;;;;;;;;;;;4.90;99.90;;;;;;5076702;28;19957;-64
2023/05/18 03:56:45;;;;;;;;;;;4.90;99.90;;;;;;5046532;28;19925;-65
2023/05/18 03:59:18;;;;;;;;;;;4.90;99.90;;;;;;5052107;28;20015;-64
2023/05/18 04:01:52;;;;;;;;;;;4.90;99.90;;;;;;5063779;28;20019;-64
2023/05/18 04:04:26;;;;;;;;;;;5.00;99.90;;;;;;5075453;28;19978;-64
2023/05/18 04:07:01;;;;;;;;;;;5.00;99.90;;;;;;5057926;28;19925;-64
2023/05/18 04:09:32;;;;;;;;;;;5.00;99.90;;;;;;5057865;28;19929;-64
2023/05/18 04:12:04;;;;;;;;;;;5.10;99.90;;;;;;5068451;28;20399;-64
2023/05/18 04:14:36;;;;;;;;;;;5.10;99.90;;;;;;5058659;28;19933;-64
2023/05/18 04:17:08;;;;;;;;;;;5.10;99.90;;;;;;5058803;28;19988;-64
2023/05/18 04:19:36;;;;;;;;;;;5.10;99.90;;;;;;5060170;28;19925;-64
2023/05/18 04:22:08;;;;;;;;;;;5.20;99.90;;;;;;5060797;28;19929;-65
2023/05/18 04:24:40;;;;;;;;;;;5.20;99.90;;;;;;5063057;28;19932;-64
2023/05/18 04:27:12;;;;;;;;;;;5.20;99.90;;;;;;5067705;28;19932;-64
2023/05/18 04:29:44;;;;;;;;;;;5.20;99.90;;;;;;5064603;28;20463;-64
2023/05/18 04:32:17;;;;;;;;;;;5.20;99.90;;;;;;5050120;28;19954;-64
2023/05/18 04:34:43;;;;;;;;;;;5.20;99.90;;;;;;5057500;28;19931;-64
2023/05/18 04:37:16;;;;;;;;;;;5.20;99.90;;;;;;5054429;28;19925;-64
2023/05/18 04:39:48;;;;;;;;;;;5.30;99.90;;;;;;5076617;28;19939;-64
2023/05/18 04:42:21;;;;;;;;;;;5.30;99.90;;;;;;5058943;28;20401;-64
2023/05/18 04:44:53;;;;;;;;;;;5.30;99.90;;;;;;5061163;28;19933;-65
2023/05/18 04:47:25;;;;;;;;;;;5.40;99.90;;;;;;5062978;28;19929;-64
2023/05/18 04:49:52;;;;;;;;;;;5.40;99.90;;;;;;5062566;28;19925;-64
2023/05/18 04:52:23;;;;;;;;;;;5.40;99.90;;;;;;5058930;28;20012;-64
2023/05/18 04:54:51;;;;;;;;;;;5.40;99.90;;;;;;5057934;28;20015;-64
2023/05/18 04:57:17;;;;;;;;;;;5.50;99.90;;;;;;5054386;28;19928;-64
2023/05/18 04:59:49;;;;;;;;;;;5.50;99.90;;;;;;5055896;28;19931;-64
2023/05/18 05:02:16;;;;;;;;;;;5.60;99.90;;;;;;5054077;28;19975;-64
2023/05/18 05:04:48;;;;;;;;;;;5.60;99.90;;;;;;5055783;28;20431;-64
2023/05/18 05:07:20;;;;;;;;;;;5.60;99.90;;;;;;5061144;28;20343;-65
2023/05/18 05:09:52;;;;;;;;;;;5.60;99.90;;;;;;5065069;28;20023;-64
2023/05/18 05:12:24;;;;;;;;;;;5.60;99.90;;;;;;5062810;28;19925;-64
2023/05/18 05:14:50;;;;;;;;;;;5.70;99.90;;;;;;5062775;28;19986;-64
2023/05/18 05:17:23;;;;;;;;;;;5.70;99.90;;;;;;5057390;28;19924;-64
2023/05/18 05:19:50;;;;;;;;;;;5.80;99.90;;;;;;5056483;28;19929;-64
2023/05/18 05:22:21;;;;;;;;;;;5.80;99.90;;;;;;5053178;28;19976;-64
2023/05/18 05:24:49;;;;;;;;;;;5.90;99.90;;;;;;5052647;28;19925;-64
2023/05/18 05:27:22;;;;;;;;;;;5.90;99.90;;;;;;5052782;28;19978;-64
2023/05/18 05:29:49;;;;;;;;;;;6.00;99.90;;;;;;5060626;28;19947;-64
2023/05/18 05:32:21;;;;;;;;;;;6.10;99.90;;;;;;5048677;28;20015;-64
2023/05/18 05:34:54;;;;;;;;;;;6.10;99.90;;;;;;5063458;28;20051;-64
2023/05/18 05:37:25;;;;;;;;;;;6.20;99.90;;;;;;5060490;28;20019;-64
2023/05/18 05:39:58;;;;;;;;;;;6.30;99.90;;;;;;5058976;28;19978;-64
2023/05/18 05:42:32;;;;;;;;;;;6.40;99.90;;;;;;5056054;28;19967;-64
2023/05/18 05:44:59;;;;;;;;;;;6.40;99.90;;;;;;5054775;28;20587;-64
2023/05/18 05:47:36;;;;;;;;;;;6.50;99.90;;;;;;5054658;28;19925;-64
2023/05/18 05:50:08;;;;;;;;;;;6.60;99.90;;;;;;5062916;28;19962;-65
2023/05/18 05:52:40;;;;;;;;;;;6.70;99.90;;;;;;5048251;28;19925;-64
2023/05/18 05:55:12;;;;;;;;;;;6.70;99.90;;;;;;5064501;28;20015;-65
2023/05/18 05:57:43;;;;;;;;;;;6.80;99.90;;;;;;5064050;28;19925;-64
2023/05/18 06:00:11;;;;;;;;;;;6.90;99.90;;;;;;5062196;28;19924;-65
2023/05/18 06:02:52;;;;;;;;;;;7.00;99.90;;;;;;5061599;28;19924;-64
2023/05/18 06:05:36;;;;;;;;;;;7.10;99.90;;;;;;5059336;28;20298;-64
2023/05/18 06:08:11;;;;;;;;;;;7.10;99.90;;;;;;5065272;28;19933;-64
2023/05/18 06:10:43;;;;;;;;;;;7.30;99.90;;;;;;5067761;28;19931;-64
2023/05/18 06:13:15;;;;;;;;;;;7.40;99.90;;;;;;5055067;28;19928;-64
2023/05/18 06:15:50;;;;;;;;;;;7.40;99.90;;;;;;5068814;28;19928;-65
2023/05/18 06:18:23;;;;;;;;;;;7.50;99.90;;;;;;5064720;28;19973;-64
2023/05/18 06:20:59;;;;;;;;;;;7.60;99.90;;;;;;5068283;28;19931;-64
2023/05/18 06:23:32;;;;;;;;;;;7.70;99.90;;;;;;5068933;28;19968;-64
2023/05/18 06:26:10;;;;;;;;;;;7.80;99.90;;;;;;5065606;28;19928;-65
2023/05/18 06:29:08;;;;;;;;;;;7.90;99.90;;;;;;5062391;28;19929;-65
2023/05/18 06:32:03;;;;;;;;;;;8.00;99.90;;;;;;5045533;28;19924;-65
2023/05/18 06:34:37;;;;;;;;;;;8.20;99.90;;;;;;5072084;28;19924;-65
2023/05/18 06:37:10;;;;;;;;;;;8.30;99.90;;;;;;5077150;28;19951;-64
2023/05/18 06:39:42;;;;;;;;;;;8.40;99.90;;;;;;5060659;28;20055;-64
2023/05/18 06:42:14;;;;;;;;;;;8.50;99.90;;;;;;5072452;28;19929;-65
2023/05/18 06:44:50;;;;;;;;;;;8.60;99.90;;;;;;5063776;28;20408;-65
2023/05/18 06:47:42;;;;;;;;;;;8.70;99.90;;;;;;5062888;28;19932;-64
2023/05/18 06:50:13;;;;;;;;;;;8.90;99.90;;;;;;5069117;28;19932;-64
2023/05/18 06:52:46;;;;;;;;;;;9.00;99.90;;;;;;5066891;28;20023;-64
2023/05/18 06:55:18;;;;;;;;;;;9.10;99.90;;;;;;5066520;28;19956;-64
2023/05/18 06:57:51;;;;;;;;;;;9.20;99.90;;;;;;5065674;28;20012;-64
2023/05/18 07:00:19;;;;;;;;;;;9.30;99.90;;;;;;5068255;28;19928;-64
2023/05/18 07:02:51;;;;;;;;;;;9.50;99.90;;;;;;5070737;28;20347;-64
2023/05/18 07:05:23;;;;;;;;;;;9.60;99.90;;;;;;5070380;28;20335;-65
2023/05/18 07:07:55;;;;;;;;;;;9.70;99.90;;;;;;5066950;28;19929;-65
2023/05/18 07:10:27;;;;;;;;;;;9.80;99.90;;;;;;5065250;28;19947;-64
2023/05/18 07:12:54;;;;;;;;;;;9.90;99.90;;;;;;5066236;28;19989;-64
2023/05/18 07:15:26;;;;;;;;;;;10.00;99.90;;;;;;5065558;28;19924;-64
2023/05/18 07:17:58;;;;;;;;;;;10.20;99.90;;;;;;5063440;28;19933;-65
2023/05/18 07:20:30;;;;;;;;;;;10.20;99.90;;;;;;5063970;28;19936;-64
2023/05/18 07:23:02;;;;;;;;;;;10.30;99.90;;;;;;5067233;28;19974;-65
2023/05/18 07:25:29;;;;;;;;;;;10.40;99.90;;;;;;5063269;28;19986;-65
2023/05/18 07:27:55;;;;;;;;;;;10.50;99.90;;;;;;5068835;28;20023;-66
2023/05/18 07:30:27;;;;;;;;;;;10.60;99.90;;;;;;5068133;28;19935;-70
2023/05/18 07:32:59;;;;;;;;;;;10.70;99.90;;;;;;5067878;28;19935;-65
2023/05/18 07:35:26;;;;;;;;;;;10.80;99.90;;;;;;5068696;28;19963;-64
2023/05/18 07:37:58;;;;;;;;;;;10.90;99.90;;;;;;5069292;28;19978;-65
2023/05/18 07:40:24;;;;;;;;;;;11.00;99.90;;;;;;5068265;28;20416;-65
2023/05/18 07:42:56;;;;;;;;;;;11.10;99.90;;;;;;5051495;28;19932;-65
2023/05/18 07:45:28;;;;;;;;;;;11.20;99.90;;;;;;5077196;28;20020;-65
2023/05/18 07:48:00;;;;;;;;;;;11.30;99.90;;;;;;5063292;28;19935;-65
2023/05/18 07:50:33;;;;;;;;;;;11.50;99.90;;;;;;5060764;28;20405;-64
2023/05/18 07:53:05;;;;;;;;;;;11.60;99.90;;;;;;5055734;28;20023;-65
2023/05/18 07:55:37;;;;;;;;;;;11.80;99.90;;;;;;5056081;28;20282;-65
2023/05/18 07:58:04;;;;;;;;;;;11.90;99.90;;;;;;5061308;28;19955;-65
2023/05/18 08:00:36;;;;;;;;;;;11.90;99.90;;;;;;5060845;28;19951;-65
2023/05/18 08:03:08;;;;;;;;;;;11.90;99.90;;;;;;5059868;28;20414;-66
2023/05/18 08:05:40;;;;;;;;;;;11.90;99.90;;;;;;5066512;28;20438;-65
2023/05/18 08:08:10;;;;;;;;;;;11.80;99.90;;;;;;5063216;28;19947;-65
2023/05/18 08:10:42;;;;;;;;;;;11.90;99.90;;;;;;5060437;28;19936;-65
2023/05/18 08:13:14;;;;;;;;;;;12.00;99.90;;;;;;5065416;28;19929;-65
2023/05/18 08:15:42;;;;;;;;;;;12.00;99.90;;;;;;5055923;28;19929;-65
2023/05/18 08:18:13;;;;;;;;;;;12.00;99.90;;;;;;5055489;28;19935;-65
2023/05/18 08:20:40;;;;;;;;;;;12.10;99.90;;;;;;5055480;28;19967;-65
2023/05/18 08:23:12;;;;;;;;;;;12.10;99.90;;;;;;5057642;28;20027;-65
2023/05/18 08:25:44;;;;;;;;;;;12.00;99.90;;;;;;5065893;28;19924;-65
2023/05/18 08:28:16;;;;;;;;;;;12.10;99.90;;;;;;5067788;28;19986;-65
2023/05/18 08:30:47;;;;;;;;;;;12.10;99.90;;;;;;5062235;28;19947;-65
2023/05/18 08:33:19;;;;;;;;;;;12.10;99.90;;;;;;5064058;28;19924;-64
2023/05/18 08:35:51;;;;;;;;;;;12.10;99.90;;;;;;5048670;28;20404;-65
2023/05/18 08:38:23;;;;;;;;;;;12.20;99.90;;;;;;5056218;28;19925;-65
2023/05/18 08:41:08;;;;;;;;;;;12.20;99.90;;;;;;5056349;28;19933;-65
2023/05/18 08:43:44;;;;;;;;;;;12.20;99.90;;;;;;5069966;28;19928;-65
2023/05/18 08:46:19;;;;;;;;;;;12.20;99.90;;;;;;5057833;28;19924;-64
2023/05/18 08:48:51;;;;;;;;;;;12.20;99.90;;;;;;5067369;28;20024;-64
2023/05/18 08:51:20;;;;;;;;;;;12.40;99.90;;;;;;5064388;28;19928;-65
2023/05/18 08:53:51;;;;;;;;;;;12.50;99.90;;;;;;5063107;28;20376;-65
2023/05/18 08:56:23;;;;;;;;;;;12.60;99.90;;;;;;5056722;28;19929;-64
2023/05/18 08:58:55;;;;;;;;;;;12.80;99.90;;;;;;5058326;28;19976;-65
2023/05/18 09:01:28;;;;;;;;;;;12.90;99.90;;;;;;5057511;28;19932;-65
2023/05/18 09:04:00;;;;;;;;;;;13.10;99.90;;;;;;5054852;28;19932;-65
2023/05/18 09:06:27;;;;;;;;;;;13.40;99.90;;;;;;5056347;28;20019;-65
2023/05/18 09:09:03;;;;;;;;;;;13.60;99.90;;;;;;5051170;28;19935;-65
2023/05/18 09:11:34;;;;;;;;;;;13.70;99.90;;;;;;5065124;28;19925;-65
2023/05/18 09:14:06;;;;;;;;;;;13.70;99.90;;;;;;5065719;28;19928;-65
2023/05/18 09:16:33;;;;;;;;;;;13.80;99.90;;;;;;5062372;28;20450;-65
2023/05/18 09:19:00;;;;;;;;;;;13.90;99.90;;;;;;5064483;28;19933;-65
2023/05/18 09:21:32;;;;;;;;;;;14.00;99.90;;;;;;5060981;28;19936;-64
2023/05/18 09:24:04;;;;;;;;;;;14.30;99.90;;;;;;5059693;28;19925;-65
2023/05/18 09:26:36;;;;;;;;;;;14.40;99.90;;;;;;5064905;28;20029;-65
2023/05/18 09:29:18;;;;;;;;;;;14.50;99.90;;;;;;5069336;28;19932;-65
2023/05/18 09:31:52;;;;;;;;;;;14.70;99.90;;;;;;5067284;28;20312;-65
2023/05/18 09:34:24;;;;;;;;;;;14.80;99.90;;;;;;5061250;28;20402;-65
2023/05/18 09:36:51;;;;;;;;;;;14.90;99.90;;;;;;5056569;28;20016;-65
2023/05/18 09:39:23;;;;;;;;;;;14.70;99.90;;;;;;5066527;28;19932;-65
2023/05/18 09:41:58;;;;;;;;;;;14.70;99.90;;;;;;5066306;28;19960;-65
2023/05/18 09:44:31;;;;;;;;;;;14.70;99.90;;;;;;5065388;28;19932;-65
2023/05/18 09:47:07;;;;;;;;;;;14.70;99.90;;;;;;5068297;28;19929;-65
2023/05/18 09:49:39;;;;;;;;;;;14.70;99.90;;;;;;5068414;28;19929;-65
2023/05/18 09:52:11;;;;;;;;;;;14.70;99.90;;;;;;5071435;28;20285;-65
2023/05/18 09:54:42;;;;;;;;;;;14.80;99.90;;;;;;5071984;28;19963;-65
2023/05/18 09:57:18;;;;;;;;;;;14.80;99.90;;;;;;5067774;28;20284;-65
2023/05/18 09:59:54;;;;;;;;;;;14.70;99.90;;;;;;5068615;28;19941;-65
2023/05/18 10:02:26;;;;;;;;;;;14.60;99.90;;;;;;5071033;28;20324;-65
2023/05/18 10:04:58;;;;;;;;;;;14.50;99.90;;;;;;5068154;28;19982;-65
2023/05/18 10:07:33;;;;;;;;;;;14.40;99.90;;;;;;5065891;28;20007;-65
2023/05/18 10:10:05;;;;;;;;;;;14.40;99.90;;;;;;5067771;28;19936;-65
2023/05/18 10:12:37;;;;;;;;;;;14.40;99.90;;;;;;5065836;28;19931;-65
2023/05/18 10:15:07;;;;;;;;;;;14.50;99.90;;;;;;5069210;28;20296;-65
2023/05/18 10:17:41;;;;;;;;;;;14.50;99.90;;;;;;5068744;28;19951;-65
2023/05/18 10:20:14;;;;;;;;;;;14.60;99.90;;;;;;5072267;28;19935;-65
2023/05/18 10:22:47;;;;;;;;;;;14.70;99.90;;;;;;5057509;28;20572;-64
2023/05/18 10:25:22;;;;;;;;;;;14.60;99.90;;;;;;5060538;28;20011;-65
2023/05/18 10:27:55;;;;;;;;;;;14.70;99.90;;;;;;5060611;28;19924;-65
2023/05/18 10:30:26;;;;;;;;;;;14.90;99.90;;;;;;5069544;28;19939;-65
2023/05/18 10:32:59;;;;;;;;;;;15.10;99.90;;;;;;5069072;28;19928;-65
2023/05/18 10:35:31;;;;;;;;;;;15.20;99.90;;;;;;5066005;28;19928;-65
2023/05/18 10:38:04;;;;;;;;;;;15.10;99.90;;;;;;5070099;28;20469;-65
2023/05/18 10:40:35;;;;;;;;;;;15.10;99.90;;;;;;5069882;28;19929;-65
2023/05/18 10:43:07;;;;;;;;;;;15.10;99.90;;;;;;5067510;28;20346;-64
2023/05/18 10:45:40;;;;;;;;;;;14.90;99.90;;;;;;5064623;28;19931;-64
2023/05/18 10:48:08;;;;;;;;;;;14.80;99.90;;;;;;5065110;28;20011;-64
2023/05/18 10:50:40;;;;;;;;;;;14.60;99.90;;;;;;5066827;28;20431;-65
2023/05/18 10:53:11;;;;;;;;;;;14.60;99.90;;;;;;5064521;28;19939;-65
2023/05/18 10:55:43;;;;;;;;;;;14.70;99.90;;;;;;5067360;28;19924;-65
2023/05/18 10:58:20;;;;;;;;;;;14.70;99.90;;;;;;5069240;28;19935;-64
2023/05/18 11:00:54;;;;;;;;;;;14.70;99.90;;;;;;5067833;28;19963;-65
2023/05/18 11:03:27;;;;;;;;;;;14.60;99.90;;;;;;5068156;28;19951;-65
2023/05/18 11:06:06;;;;;;;;;;;14.60;99.90;;;;;;5066620;28;20304;-65
2023/05/18 11:08:48;;;;;;;;;;;14.70;99.90;;;;;;5064265;28;19924;-65
2023/05/18 11:11:23;;;;;;;;;;;14.70;99.90;;;;;;5067197;28;20519;-65
2023/05/18 11:14:01;;;;;;;;;;;14.70;99.90;;;;;;5063396;28;19924;-65
2023/05/18 11:16:34;;;;;;;;;;;14.70;99.90;;;;;;5066174;28;19928;-65
2023/05/18 11:19:07;;;;;;;;;;;14.70;99.90;;;;;;5083676;28;19929;-65
2023/05/18 11:21:34;;;;;;;;;;;14.80;99.90;;;;;;5063502;28;19932;-65
2023/05/18 11:24:22;;;;;;;;;;;14.80;99.90;;;;;;5063031;28;20029;-65
2023/05/18 11:26:55;;;;;;;;;;;14.90;99.90;;;;;;5066635;28;19928;-65
2023/05/18 11:29:34;;;;;;;;;;;14.90;99.90;;;;;;5066248;28;19931;-65
2023/05/18 11:32:21;;;;;;;;;;;15.00;99.90;;;;;;5068545;28;19981;-65
2023/05/18 11:34:53;;;;;;;;;;;15.00;99.90;;;;;;5063927;28;19994;-65
2023/05/18 11:37:37;;;;;;;;;;;15.10;99.90;;;;;;5061897;28;19932;-65
2023/05/18 11:40:04;;;;;;;;;;;15.10;99.90;;;;;;5066096;28;19989;-65
2023/05/18 11:42:36;;;;;;;;;;;15.00;99.90;;;;;;5067785;28;20331;-65
2023/05/18 11:45:11;;;;;;;;;;;15.10;99.90;;;;;;5063689;28;20358;-65
2023/05/18 11:47:39;;;;;;;;;;;15.10;99.90;;;;;;5067945;28;20030;-64
2023/05/18 11:50:11;;;;;;;;;;;15.10;99.90;;;;;;5064870;28;19935;-64
2023/05/18 11:52:46;;;;;;;;;;;15.20;99.90;;;;;;5068487;28;20423;-65
2023/05/18 11:55:14;;;;;;;;;;;15.30;99.90;;;;;;5069347;28;20035;-65
2023/05/18 11:57:51;;;;;;;;;;;15.30;99.90;;;;;;5067561;28;20015;-65
2023/05/18 12:00:18;;;;;;;;;;;15.40;99.90;;;;;;5062706;28;20470;-65
2023/05/18 12:02:51;;;;;;;;;;;15.40;99.90;;;;;;5061161;28;19924;-65
2023/05/18 12:05:22;;;;;;;;;;;15.50;99.90;;;;;;5063969;28;20589;-65
2023/05/18 12:07:54;;;;;;;;;;;15.50;99.90;;;;;;5065390;28;19929;-65
2023/05/18 12:10:27;;;;;;;;;;;15.60;99.90;;;;;;5065448;28;19936;-65
2023/05/18 12:12:59;;;;;;;;;;;15.60;99.90;;;;;;5079632;28;19932;-65
2023/05/18 12:15:32;;;;;;;;;;;15.60;99.90;;;;;;5052092;28;19939;-65
2023/05/18 12:18:04;;;;;;;;;;;15.50;99.90;;;;;;5070403;28;20411;-65
2023/05/18 12:20:30;;;;;;;;;;;15.30;99.90;;;;;;5064885;28;19929;-65
2023/05/18 12:23:02;;;;;;;;;;;15.20;99.90;;;;;;5061497;28;19948;-66
2023/05/18 12:25:34;;;;;;;;;;;15.30;99.90;;;;;;5062644;28;20323;-65
2023/05/18 12:28:06;;;;;;;;;;;15.40;99.90;;;;;;5064750;28;20315;-65
2023/05/18 12:30:38;;;;;;;;;;;15.50;99.90;;;;;;5062863;28;20315;-65
2023/05/18 12:33:10;;;;;;;;;;;15.60;99.90;;;;;;5067581;28;19955;-65
2023/05/18 12:35:42;;;;;;;;;;;15.70;99.90;;;;;;5067190;28;19939;-65
2023/05/18 12:38:10;;;;;;;;;;;15.70;99.90;;;;;;5067472;28;20011;-65
2023/05/18 12:40:43;;;;;;;;;;;15.60;99.90;;;;;;5068482;28;19924;-65
2023/05/18 12:43:15;;;;;;;;;;;15.50;99.90;;;;;;5066566;28;20502;-64
2023/05/18 12:45:46;;;;;;;;;;;15.40;99.90;;;;;;5054526;28;19932;-65
2023/05/18 12:48:13;;;;;;;;;;;15.40;99.90;;;;;;5066484;28;20003;-64
2023/05/18 12:50:45;;;;;;;;;;;15.50;99.90;;;;;;5069294;28;19957;-64
2023/05/18 12:53:17;;;;;;;;;;;15.60;99.90;;;;;;5066039;28;20494;-64
2023/05/18 12:56:00;;;;;;;;;;;15.70;99.90;;;;;;5074571;28;19924;-65
2023/05/18 12:58:32;;;;;;;;;;;15.70;99.90;;;;;;5063115;28;20412;-64
2023/05/18 13:01:07;;;;;;;;;;;15.70;99.90;;;;;;5061870;28;19925;-64
2023/05/18 13:03:34;;;;;;;;;;;15.70;99.90;;;;;;5072755;28;20375;-65
2023/05/18 13:06:06;;;;;;;;;;;15.70;99.90;;;;;;5069110;28;19956;-65
2023/05/18 13:08:38;;;;;;;;;;;15.80;99.90;;;;;;5066278;28;19930;-65
2023/05/18 13:11:14;;;;;;;;;;;15.90;99.90;;;;;;5067580;28;19924;-65
2023/05/18 13:13:58;;;;;;;;;;;15.90;99.90;;;;;;5063732;28;19924;-64
2023/05/18 13:16:31;;;;;;;;;;;15.90;99.90;;;;;;5063699;28;19929;-64
2023/05/18 13:19:05;;;;;;;;;;;15.90;99.90;;;;;;5058058;28;20304;-64
2023/05/18 13:21:36;;;;;;;;;;;15.80;99.90;;;;;;5068485;28;19960;-64
2023/05/18 13:24:08;;;;;;;;;;;15.70;99.90;;;;;;5061481;28;19924;-64
2023/05/18 13:26:40;;;;;;;;;;;15.70;99.90;;;;;;5062951;28;19928;-65
2023/05/18 13:29:12;;;;;;;;;;;15.70;99.90;;;;;;5068008;28;19929;-64
2023/05/18 13:31:44;;;;;;;;;;;15.60;99.90;;;;;;5067313;28;19925;-64
2023/05/18 13:34:16;;;;;;;;;;;15.60;99.90;;;;;;5066521;28;19932;-64
2023/05/18 13:36:48;;;;;;;;;;;15.50;99.90;;;;;;5062767;28;19952;-64
2023/05/18 13:39:20;;;;;;;;;;;15.60;99.90;;;;;;5060604;28;20014;-65
2023/05/18 13:41:53;;;;;;;;;;;15.60;99.90;;;;;;5058295;28;19932;-65
2023/05/18 13:44:25;;;;;;;;;;;15.80;99.90;;;;;;5059856;28;19928;-65
2023/05/18 13:46:52;;;;;;;;;;;16.00;99.90;;;;;;5062666;28;20003;-65
2023/05/18 13:49:23;;;;;;;;;;;16.20;99.90;;;;;;5064671;28;19935;-65
2023/05/18 13:51:58;;;;;;;;;;;16.30;99.90;;;;;;5060783;28;20035;-65
2023/05/18 13:54:30;;;;;;;;;;;16.20;99.90;;;;;;5061704;28;20022;-65
2023/05/18 13:57:02;;;;;;;;;;;16.20;99.90;;;;;;5061119;28;19929;-64
2023/05/18 13:59:34;;;;;;;;;;;16.10;99.90;;;;;;5062236;28;20400;-65
2023/05/18 14:02:06;;;;;;;;;;;16.00;99.90;;;;;;5066597;28;19929;-64
2023/05/18 14:04:38;;;;;;;;;;;16.00;99.90;;;;;;5061737;28;20003;-65
2023/05/18 14:07:09;;;;;;;;;;;15.90;99.90;;;;;;5060857;28;19932;-65
2023/05/18 14:09:41;;;;;;;;;;;15.80;99.90;;;;;;5061404;28;19935;-65
2023/05/18 14:12:13;;;;;;;;;;;15.80;99.90;;;;;;5060221;28;19951;-65
2023/05/18 14:14:44;;;;;;;;;;;15.70;99.90;;;;;;5063083;28;19931;-65
2023/05/18 14:17:16;;;;;;;;;;;15.80;99.90;;;;;;5062660;28;20010;-65
2023/05/18 14:19:48;;;;;;;;;;;15.90;99.90;;;;;;5065327;28;19935;-65
2023/05/18 14:22:20;;;;;;;;;;;16.10;99.90;;;;;;5063548;28;20487;-65
2023/05/18 14:24:52;;;;;;;;;;;16.20;99.90;;;;;;5066369;28;19924;-65
2023/05/18 14:27:24;;;;;;;;;;;16.20;99.90;;;;;;5065869;28;19959;-65
2023/05/18 14:29:51;;;;;;;;;;;16.20;99.90;;;;;;5057290;28;19929;-65
2023/05/18 14:32:22;;;;;;;;;;;16.20;99.90;;;;;;5064974;28;19924;-64
2023/05/18 14:34:50;;;;;;;;;;;16.20;99.90;;;;;;5061227;28;19924;-65
2023/05/18 14:37:22;;;;;;;;;;;16.10;99.90;;;;;;5059339;28;19932;-65
2023/05/18 14:39:54;;;;;;;;;;;15.90;99.90;;;;;;5065999;28;19968;-65
2023/05/18 14:42:26;;;;;;;;;;;15.90;99.90;;;;;;5057937;28;19932;-65
2023/05/18 14:44:58;;;;;;;;;;;15.80;99.90;;;;;;5070643;28;19975;-65
2023/05/18 14:47:30;;;;;;;;;;;15.70;99.90;;;;;;5064979;28;19931;-65
2023/05/18 14:50:01;;;;;;;;;;;15.70;99.90;;;;;;5065600;28;19929;-64
2023/05/18 14:52:28;;;;;;;;;;;15.70;99.90;;;;;;5074384;28;19928;-65